sensor_id;sensor_type;location;lat;lon;timestamp;temperature;humidity
23405;DHT22;11875;49.356;2.718;2023-04-24T00:01:29;10.10;99.90
23405;DHT22;11875;49.356;2.718;2023-04-24T00:03:56;10.20;99.90
23405;DHT22;11875;49.356;2.718;2023-04-24T00:06:25;10.20;99.90
23405;DHT22;11875;49.356;2.718;2023-04-24T00:08:59;10.10;99.90
23405;DHT22;11875;49.356;2.718;2023-04-24T00:11:24;10.00;99.90
23405;DHT22;11875;49.356;2.718;2023-04-24T00:13:50;10.00;99.90
23405;DHT22;11875;49.356;2.718;2023-04-24T00:16:16;9.80;99.90
23405;DHT22;11875;49.356;2.718;2023-04-24T00:18:41;9.70;99.90
23405;DHT22;11875;49.356;2.718;2023-04-24T00:21:07;9.60;99.90
23405;DHT22;11875;49.356;2.718;2023-04-24T00:23:32;9.50;99.90
23405;DHT22;11875;49.356;2.718;2023-04-24T00:25:58;9.50;99.90
23405;DHT22;11875;49.356;2.718;2023-04-24T00:28:23;9.50;99.90
23405;DHT22;11875;49.356;2.718;2023-04-24T00:30:49;9.60;99.90
23405;DHT22;11875;49.356;2.718;2023-04-24T00:33:15;9.40;99.90
23405;DHT22;11875;49.356;2.718;2023-04-24T00:35:40;9.40;99.90
23405;DHT22;11875;49.356;2.718;2023-04-24T00:38:06;9.30;99.90
23405;DHT22;11875;49.356;2.718;2023-04-24T00:40:32;9.20;99.90
23405;DHT22;11875;49.356;2.718;2023-04-24T00:42:58;9.30;99.90
23405;DHT22;11875;49.356;2.718;2023-04-24T00:45:24;9.20;99.90
23405;DHT22;11875;49.356;2.718;2023-04-24T00:47:52;9.10;99.90
23405;DHT22;11875;49.356;2.718;2023-04-24T00:50:18;9.30;99.90
23405;DHT22;11875;49.356;2.718;2023-04-24T00:52:44;9.30;99.90
23405;DHT22;11875;49.356;2.718;2023-04-24T00:55:10;9.30;99.90
23405;DHT22;11875;49.356;2.718;2023-04-24T00:57:37;9.30;99.90
23405;DHT22;11875;49.356;2.718;2023-04-24T01:00:05;9.30;99.90
23405;DHT22;11875;49.356;2.718;2023-04-24T01:02:31;9.20;99.90
23405;DHT22;11875;49.356;2.718;2023-04-24T01:05:00;9.10;99.90
23405;DHT22;11875;49.356;2.718;2023-04-24T01:07:26;9.10;99.90
23405;DHT22;11875;49.356;2.718;2023-04-24T01:09:52;9.30;99.90
23405;DHT22;11875;49.356;2.718;2023-04-24T01:12:19;9.30;99.90
23405;DHT22;11875;49.356;2.718;2023-04-24T01:14:45;9.50;99.90
23405;DHT22;11875;49.356;2.718;2023-04-24T01:17:11;9.50;99.90
23405;DHT22;11875;49.356;2.718;2023-04-24T01:19:37;9.30;99.90
23405;DHT22;11875;49.356;2.718;2023-04-24T01:22:08;9.50;99.90
23405;DHT22;11875;49.356;2.718;2023-04-24T01:24:34;9.30;99.90
23405;DHT22;11875;49.356;2.718;2023-04-24T01:26:59;9.50;99.90
23405;DHT22;11875;49.356;2.718;2023-04-24T01:29:26;9.40;99.90
23405;DHT22;11875;49.356;2.718;2023-04-24T01:31:52;9.40;99.90
23405;DHT22;11875;49.356;2.718;2023-04-24T01:34:18;9.40;99.90
23405;DHT22;11875;49.356;2.718;2023-04-24T01:36:46;9.50;99.90
23405;DHT22;11875;49.356;2.718;2023-04-24T01:39:12;9.20;99.90
23405;DHT22;11875;49.356;2.718;2023-04-24T01:41:38;9.20;99.90
23405;DHT22;11875;49.356;2.718;2023-04-24T01:44:03;9.20;99.90
23405;DHT22;11875;49.356;2.718;2023-04-24T01:46:29;9.20;99.90
23405;DHT22;11875;49.356;2.718;2023-04-24T01:48:58;9.30;99.90
23405;DHT22;11875;49.356;2.718;2023-04-24T01:51:25;9.20;99.90
23405;DHT22;11875;49.356;2.718;2023-04-24T01:53:51;9.30;99.90
23405;DHT22;11875;49.356;2.718;2023-04-24T01:56:16;9.40;99.90
23405;DHT22;11875;49.356;2.718;2023-04-24T01:58:43;9.30;99.90
23405;DHT22;11875;49.356;2.718;2023-04-24T02:01:09;9.40;99.90
23405;DHT22;11875;49.356;2.718;2023-04-24T02:03:40;9.50;99.90
23405;DHT22;11875;49.356;2.718;2023-04-24T02:06:06;9.50;99.90
23405;DHT22;11875;49.356;2.718;2023-04-24T02:08:31;9.50;99.90
23405;DHT22;11875;49.356;2.718;2023-04-24T02:10:57;9.40;99.90
23405;DHT22;11875;49.356;2.718;2023-04-24T02:13:22;9.40;99.90
23405;DHT22;11875;49.356;2.718;2023-04-24T02:15:48;9.50;99.90
23405;DHT22;11875;49.356;2.718;2023-04-24T02:18:13;9.40;99.90
23405;DHT22;11875;49.356;2.718;2023-04-24T02:20:40;9.40;99.90
23405;DHT22;11875;49.356;2.718;2023-04-24T02:23:06;9.40;99.90
23405;DHT22;11875;49.356;2.718;2023-04-24T02:25:32;9.30;99.90
23405;DHT22;11875;49.356;2.718;2023-04-24T02:27:58;9.40;99.90
23405;DHT22;11875;49.356;2.718;2023-04-24T02:30:24;9.40;99.90
23405;DHT22;11875;49.356;2.718;2023-04-24T02:32:49;9.60;99.90
23405;DHT22;11875;49.356;2.718;2023-04-24T02:35:15;9.80;99.90
23405;DHT22;11875;49.356;2.718;2023-04-24T02:37:40;9.80;99.90
23405;DHT22;11875;49.356;2.718;2023-04-24T02:40:06;10.00;99.90
23405;DHT22;11875;49.356;2.718;2023-04-24T02:42:32;10.10;99.90
23405;DHT22;11875;49.356;2.718;2023-04-24T02:44:58;10.00;99.90
23405;DHT22;11875;49.356;2.718;2023-04-24T02:47:23;9.90;99.90
23405;DHT22;11875;49.356;2.718;2023-04-24T02:49:49;9.90;99.90
23405;DHT22;11875;49.356;2.718;2023-04-24T02:52:15;9.70;99.90
23405;DHT22;11875;49.356;2.718;2023-04-24T02:54:40;9.50;99.90
23405;DHT22;11875;49.356;2.718;2023-04-24T02:57:06;9.40;99.90
23405;DHT22;11875;49.356;2.718;2023-04-24T02:59:31;9.40;99.90
23405;DHT22;11875;49.356;2.718;2023-04-24T03:01:57;9.40;99.90
23405;DHT22;11875;49.356;2.718;2023-04-24T03:04:22;9.50;99.90
23405;DHT22;11875;49.356;2.718;2023-04-24T03:06:48;9.50;99.90
23405;DHT22;11875;49.356;2.718;2023-04-24T03:09:14;9.40;99.90
23405;DHT22;11875;49.356;2.718;2023-04-24T03:11:39;9.50;99.90
23405;DHT22;11875;49.356;2.718;2023-04-24T03:14:06;9.50;99.90
23405;DHT22;11875;49.356;2.718;2023-04-24T03:16:31;9.50;99.90
23405;DHT22;11875;49.356;2.718;2023-04-24T03:18:58;9.60;99.90
23405;DHT22;11875;49.356;2.718;2023-04-24T03:21:23;9.60;99.90
23405;DHT22;11875;49.356;2.718;2023-04-24T03:23:49;9.40;99.90
23405;DHT22;11875;49.356;2.718;2023-04-24T03:26:15;9.40;99.90
23405;DHT22;11875;49.356;2.718;2023-04-24T03:28:40;9.40;99.90
23405;DHT22;11875;49.356;2.718;2023-04-24T03:31:06;9.30;99.90
23405;DHT22;11875;49.356;2.718;2023-04-24T03:33:31;9.30;99.90
23405;DHT22;11875;49.356;2.718;2023-04-24T03:35:57;9.40;99.90
23405;DHT22;11875;49.356;2.718;2023-04-24T03:38:22;9.30;99.90
23405;DHT22;11875;49.356;2.718;2023-04-24T03:40:48;9.20;99.90
23405;DHT22;11875;49.356;2.718;2023-04-24T03:43:13;9.10;99.90
23405;DHT22;11875;49.356;2.718;2023-04-24T03:45:39;9.30;99.90
23405;DHT22;11875;49.356;2.718;2023-04-24T03:48:05;9.30;99.90
23405;DHT22;11875;49.356;2.718;2023-04-24T03:50:30;9.20;99.90
23405;DHT22;11875;49.356;2.718;2023-04-24T03:52:56;9.10;99.90
23405;DHT22;11875;49.356;2.718;2023-04-24T03:55:21;9.00;99.90
23405;DHT22;11875;49.356;2.718;2023-04-24T03:57:47;9.10;99.90
23405;DHT22;11875;49.356;2.718;2023-04-24T04:00:13;9.00;99.90
23405;DHT22;11875;49.356;2.718;2023-04-24T04:02:39;9.00;99.90
23405;DHT22;11875;49.356;2.718;2023-04-24T04:05:05;9.00;99.90
23405;DHT22;11875;49.356;2.718;2023-04-24T04:07:30;9.00;99.90
23405;DHT22;11875;49.356;2.718;2023-04-24T04:09:56;9.00;99.90
23405;DHT22;11875;49.356;2.718;2023-04-24T04:12:21;9.10;99.90
23405;DHT22;11875;49.356;2.718;2023-04-24T04:14:47;9.10;99.90
23405;DHT22;11875;49.356;2.718;2023-04-24T04:17:13;9.20;99.90
23405;DHT22;11875;49.356;2.718;2023-04-24T04:19:38;9.30;99.90
23405;DHT22;11875;49.356;2.718;2023-04-24T04:22:04;9.20;99.90
23405;DHT22;11875;49.356;2.718;2023-04-24T04:24:29;9.10;99.90
23405;DHT22;11875;49.356;2.718;2023-04-24T04:26:55;9.20;99.90
23405;DHT22;11875;49.356;2.718;2023-04-24T04:29:23;9.10;99.90
23405;DHT22;11875;49.356;2.718;2023-04-24T04:31:49;9.20;99.90
23405;DHT22;11875;49.356;2.718;2023-04-24T04:34:15;9.20;99.90
23405;DHT22;11875;49.356;2.718;2023-04-24T04:36:41;9.20;99.90
23405;DHT22;11875;49.356;2.718;2023-04-24T04:39:08;9.30;99.90
23405;DHT22;11875;49.356;2.718;2023-04-24T04:41:33;9.50;99.90
23405;DHT22;11875;49.356;2.718;2023-04-24T04:44:03;9.50;99.90
23405;DHT22;11875;49.356;2.718;2023-04-24T04:46:30;9.60;99.90
23405;DHT22;11875;49.356;2.718;2023-04-24T04:48:58;9.70;99.90
23405;DHT22;11875;49.356;2.718;2023-04-24T04:51:24;9.90;99.90
23405;DHT22;11875;49.356;2.718;2023-04-24T04:53:50;9.80;99.90
23405;DHT22;11875;49.356;2.718;2023-04-24T04:56:16;9.60;99.90
23405;DHT22;11875;49.356;2.718;2023-04-24T04:58:41;9.50;99.90
23405;DHT22;11875;49.356;2.718;2023-04-24T05:01:07;9.40;99.90
23405;DHT22;11875;49.356;2.718;2023-04-24T05:03:33;9.40;99.90
23405;DHT22;11875;49.356;2.718;2023-04-24T05:05:58;9.50;99.90
23405;DHT22;11875;49.356;2.718;2023-04-24T05:08:24;9.60;99.90
23405;DHT22;11875;49.356;2.718;2023-04-24T05:10:50;9.60;99.90
23405;DHT22;11875;49.356;2.718;2023-04-24T05:13:15;9.60;99.90
23405;DHT22;11875;49.356;2.718;2023-04-24T05:15:41;9.60;99.90
23405;DHT22;11875;49.356;2.718;2023-04-24T05:18:06;9.90;99.90
23405;DHT22;11875;49.356;2.718;2023-04-24T05:20:32;10.00;99.90
23405;DHT22;11875;49.356;2.718;2023-04-24T05:22:58;10.10;99.90
23405;DHT22;11875;49.356;2.718;2023-04-24T05:25:23;10.10;99.90
23405;DHT22;11875;49.356;2.718;2023-04-24T05:27:49;10.20;99.90
23405;DHT22;11875;49.356;2.718;2023-04-24T05:30:14;10.10;99.90
23405;DHT22;11875;49.356;2.718;2023-04-24T05:32:40;10.00;99.90
23405;DHT22;11875;49.356;2.718;2023-04-24T05:35:06;10.00;99.90
23405;DHT22;11875;49.356;2.718;2023-04-24T05:37:32;10.00;99.90
23405;DHT22;11875;49.356;2.718;2023-04-24T05:39:58;9.90;99.90
23405;DHT22;11875;49.356;2.718;2023-04-24T05:42:23;10.10;99.90
23405;DHT22;11875;49.356;2.718;2023-04-24T05:44:50;10.10;99.90
23405;DHT22;11875;49.356;2.718;2023-04-24T05:47:15;10.30;99.90
23405;DHT22;11875;49.356;2.718;2023-04-24T05:49:41;10.40;99.90
23405;DHT22;11875;49.356;2.718;2023-04-24T05:52:06;10.40;99.90
23405;DHT22;11875;49.356;2.718;2023-04-24T05:54:34;10.50;99.90
23405;DHT22;11875;49.356;2.718;2023-04-24T05:57:00;10.50;99.90
23405;DHT22;11875;49.356;2.718;2023-04-24T05:59:29;10.50;99.90
23405;DHT22;11875;49.356;2.718;2023-04-24T06:01:55;10.60;99.90
23405;DHT22;11875;49.356;2.718;2023-04-24T06:04:20;10.60;99.90
23405;DHT22;11875;49.356;2.718;2023-04-24T06:06:46;10.60;99.90
23405;DHT22;11875;49.356;2.718;2023-04-24T06:09:16;10.50;99.90
23405;DHT22;11875;49.356;2.718;2023-04-24T06:11:42;10.50;99.90
23405;DHT22;11875;49.356;2.718;2023-04-24T06:14:07;10.50;99.90
23405;DHT22;11875;49.356;2.718;2023-04-24T06:16:33;10.60;99.90
23405;DHT22;11875;49.356;2.718;2023-04-24T06:18:59;11.20;99.90
23405;DHT22;11875;49.356;2.718;2023-04-24T06:21:24;10.60;99.90
23405;DHT22;11875;49.356;2.718;2023-04-24T06:23:51;10.80;99.90
23405;DHT22;11875;49.356;2.718;2023-04-24T06:26:16;10.80;99.90
23405;DHT22;11875;49.356;2.718;2023-04-24T06:28:42;10.90;99.90
23405;DHT22;11875;49.356;2.718;2023-04-24T06:31:07;11.00;99.90
23405;DHT22;11875;49.356;2.718;2023-04-24T06:33:33;10.90;99.90
23405;DHT22;11875;49.356;2.718;2023-04-24T06:35:58;11.00;99.90
23405;DHT22;11875;49.356;2.718;2023-04-24T06:38:24;10.90;99.90
23405;DHT22;11875;49.356;2.718;2023-04-24T06:40:50;10.90;99.90
23405;DHT22;11875;49.356;2.718;2023-04-24T06:43:16;10.90;99.90
23405;DHT22;11875;49.356;2.718;2023-04-24T06:45:42;11.00;99.90
23405;DHT22;11875;49.356;2.718;2023-04-24T06:48:09;11.00;99.90
23405;DHT22;11875;49.356;2.718;2023-04-24T06:50:35;10.80;99.90
23405;DHT22;11875;49.356;2.718;2023-04-24T06:53:00;10.80;99.90
23405;DHT22;11875;49.356;2.718;2023-04-24T06:55:26;10.90;99.90
23405;DHT22;11875;49.356;2.718;2023-04-24T06:57:52;10.90;99.90
23405;DHT22;11875;49.356;2.718;2023-04-24T07:00:17;11.10;99.90
23405;DHT22;11875;49.356;2.718;2023-04-24T07:02:43;11.20;99.90
23405;DHT22;11875;49.356;2.718;2023-04-24T07:05:09;11.20;99.90
23405;DHT22;11875;49.356;2.718;2023-04-24T07:07:34;11.10;99.90
23405;DHT22;11875;49.356;2.718;2023-04-24T07:10:03;11.20;99.90
23405;DHT22;11875;49.356;2.718;2023-04-24T07:12:29;11.10;99.90
23405;DHT22;11875;49.356;2.718;2023-04-24T07:14:55;11.20;99.90
23405;DHT22;11875;49.356;2.718;2023-04-24T07:17:20;11.40;99.90
23405;DHT22;11875;49.356;2.718;2023-04-24T07:19:46;11.50;99.90
23405;DHT22;11875;49.356;2.718;2023-04-24T07:22:11;11.70;99.90
23405;DHT22;11875;49.356;2.718;2023-04-24T07:24:43;11.70;99.90
23405;DHT22;11875;49.356;2.718;2023-04-24T07:27:08;11.60;99.90
23405;DHT22;11875;49.356;2.718;2023-04-24T07:29:34;11.60;99.90
23405;DHT22;11875;49.356;2.718;2023-04-24T07:32:01;11.50;99.90
23405;DHT22;11875;49.356;2.718;2023-04-24T07:34:26;11.50;99.90
23405;DHT22;11875;49.356;2.718;2023-04-24T07:36:52;11.70;99.90
23405;DHT22;11875;49.356;2.718;2023-04-24T07:39:18;11.80;99.90
23405;DHT22;11875;49.356;2.718;2023-04-24T07:41:43;11.90;99.90
23405;DHT22;11875;49.356;2.718;2023-04-24T07:44:09;12.10;99.90
23405;DHT22;11875;49.356;2.718;2023-04-24T07:46:35;12.20;99.90
23405;DHT22;11875;49.356;2.718;2023-04-24T07:49:01;12.50;99.90
23405;DHT22;11875;49.356;2.718;2023-04-24T07:51:27;12.80;99.90
23405;DHT22;11875;49.356;2.718;2023-04-24T07:53:53;13.10;99.90
23405;DHT22;11875;49.356;2.718;2023-04-24T07:56:20;13.40;99.90
23405;DHT22;11875;49.356;2.718;2023-04-24T07:58:46;13.70;99.90
23405;DHT22;11875;49.356;2.718;2023-04-24T08:01:11;13.60;99.90
23405;DHT22;11875;49.356;2.718;2023-04-24T08:03:37;13.70;99.90
23405;DHT22;11875;49.356;2.718;2023-04-24T08:06:03;13.80;99.90
23405;DHT22;11875;49.356;2.718;2023-04-24T08:08:28;14.00;99.90
23405;DHT22;11875;49.356;2.718;2023-04-24T08:10:54;14.00;99.90
23405;DHT22;11875;49.356;2.718;2023-04-24T08:13:20;14.10;99.90
23405;DHT22;11875;49.356;2.718;2023-04-24T08:15:46;14.00;99.90
23405;DHT22;11875;49.356;2.718;2023-04-24T08:18:11;13.80;99.90
23405;DHT22;11875;49.356;2.718;2023-04-24T08:20:39;13.60;99.90
23405;DHT22;11875;49.356;2.718;2023-04-24T08:23:04;13.60;99.90
23405;DHT22;11875;49.356;2.718;2023-04-24T08:25:30;13.70;99.90
23405;DHT22;11875;49.356;2.718;2023-04-24T08:27:56;13.90;99.90
23405;DHT22;11875;49.356;2.718;2023-04-24T08:30:21;14.00;99.90
23405;DHT22;11875;49.356;2.718;2023-04-24T08:32:47;14.10;99.90
23405;DHT22;11875;49.356;2.718;2023-04-24T08:35:13;14.30;99.90
23405;DHT22;11875;49.356;2.718;2023-04-24T08:37:39;14.40;99.90
23405;DHT22;11875;49.356;2.718;2023-04-24T08:40:11;14.70;99.90
23405;DHT22;11875;49.356;2.718;2023-04-24T08:42:37;14.90;99.90
23405;DHT22;11875;49.356;2.718;2023-04-24T08:45:03;15.00;99.90
23405;DHT22;11875;49.356;2.718;2023-04-24T08:47:30;15.00;99.90
23405;DHT22;11875;49.356;2.718;2023-04-24T08:49:56;15.00;99.90
23405;DHT22;11875;49.356;2.718;2023-04-24T08:52:22;14.90;99.90
23405;DHT22;11875;49.356;2.718;2023-04-24T08:54:48;14.80;99.90
23405;DHT22;11875;49.356;2.718;2023-04-24T08:57:14;14.40;99.90
23405;DHT22;11875;49.356;2.718;2023-04-24T08:59:40;14.10;99.90
23405;DHT22;11875;49.356;2.718;2023-04-24T09:02:06;14.00;99.90
23405;DHT22;11875;49.356;2.718;2023-04-24T09:04:35;14.00;99.90
23405;DHT22;11875;49.356;2.718;2023-04-24T09:07:02;14.00;99.90
23405;DHT22;11875;49.356;2.718;2023-04-24T09:09:30;14.10;99.90
23405;DHT22;11875;49.356;2.718;2023-04-24T09:11:58;14.20;99.90
23405;DHT22;11875;49.356;2.718;2023-04-24T09:14:24;14.20;99.90
23405;DHT22;11875;49.356;2.718;2023-04-24T09:16:50;14.40;99.90
23405;DHT22;11875;49.356;2.718;2023-04-24T09:19:16;14.50;99.90
23405;DHT22;11875;49.356;2.718;2023-04-24T09:21:46;14.70;99.90
23405;DHT22;11875;49.356;2.718;2023-04-24T09:24:17;14.70;99.90
23405;DHT22;11875;49.356;2.718;2023-04-24T09:26:43;14.60;99.90
23405;DHT22;11875;49.356;2.718;2023-04-24T09:29:16;14.70;99.90
23405;DHT22;11875;49.356;2.718;2023-04-24T09:31:43;14.80;99.90
23405;DHT22;11875;49.356;2.718;2023-04-24T09:34:09;14.70;99.90
23405;DHT22;11875;49.356;2.718;2023-04-24T09:36:40;14.60;99.90
23405;DHT22;11875;49.356;2.718;2023-04-24T09:39:12;14.50;99.90
23405;DHT22;11875;49.356;2.718;2023-04-24T09:41:49;14.50;99.90
23405;DHT22;11875;49.356;2.718;2023-04-24T09:44:20;14.40;99.90
23405;DHT22;11875;49.356;2.718;2023-04-24T09:46:58;14.50;99.90
23405;DHT22;11875;49.356;2.718;2023-04-24T09:49:29;14.50;99.90
23405;DHT22;11875;49.356;2.718;2023-04-24T09:52:05;14.40;99.90
23405;DHT22;11875;49.356;2.718;2023-04-24T09:54:31;14.30;99.90
23405;DHT22;11875;49.356;2.718;2023-04-24T09:56:57;14.10;99.90
23405;DHT22;11875;49.356;2.718;2023-04-24T09:59:23;13.90;99.90
23405;DHT22;11875;49.356;2.718;2023-04-24T10:01:48;13.90;99.90
23405;DHT22;11875;49.356;2.718;2023-04-24T10:04:26;13.90;99.90
23405;DHT22;11875;49.356;2.718;2023-04-24T10:06:53;14.00;99.90
23405;DHT22;11875;49.356;2.718;2023-04-24T10:09:22;14.00;99.90
23405;DHT22;11875;49.356;2.718;2023-04-24T10:11:50;13.70;99.90
23405;DHT22;11875;49.356;2.718;2023-04-24T10:14:23;13.30;99.90
23405;DHT22;11875;49.356;2.718;2023-04-24T10:16:50;13.00;99.90
23405;DHT22;11875;49.356;2.718;2023-04-24T10:19:17;13.00;99.90
23405;DHT22;11875;49.356;2.718;2023-04-24T10:21:46;13.10;99.90
23405;DHT22;11875;49.356;2.718;2023-04-24T10:24:17;13.20;99.90
23405;DHT22;11875;49.356;2.718;2023-04-24T10:26:45;13.40;99.90
23405;DHT22;11875;49.356;2.718;2023-04-24T10:29:12;13.60;99.90
23405;DHT22;11875;49.356;2.718;2023-04-24T10:31:38;13.60;99.90
23405;DHT22;11875;49.356;2.718;2023-04-24T10:34:06;13.70;99.90
23405;DHT22;11875;49.356;2.718;2023-04-24T10:36:32;13.90;99.90
23405;DHT22;11875;49.356;2.718;2023-04-24T10:39:01;14.00;99.90
23405;DHT22;11875;49.356;2.718;2023-04-24T10:41:27;13.90;99.90
23405;DHT22;11875;49.356;2.718;2023-04-24T10:44:12;13.90;99.90
23405;DHT22;11875;49.356;2.718;2023-04-24T10:46:39;13.90;99.90
23405;DHT22;11875;49.356;2.718;2023-04-24T10:49:08;14.00;99.90
23405;DHT22;11875;49.356;2.718;2023-04-24T10:51:49;14.00;99.90
23405;DHT22;11875;49.356;2.718;2023-04-24T10:56:49;14.10;99.90
23405;DHT22;11875;49.356;2.718;2023-04-24T10:59:24;14.30;99.90
23405;DHT22;11875;49.356;2.718;2023-04-24T11:01:54;14.40;99.90
23405;DHT22;11875;49.356;2.718;2023-04-24T11:04:30;14.50;99.90
23405;DHT22;11875;49.356;2.718;2023-04-24T11:06:57;14.60;99.90
23405;DHT22;11875;49.356;2.718;2023-04-24T11:09:32;14.70;99.90
23405;DHT22;11875;49.356;2.718;2023-04-24T11:12:09;14.80;99.90
23405;DHT22;11875;49.356;2.718;2023-04-24T11:17:38;14.40;99.90
23405;DHT22;11875;49.356;2.718;2023-04-24T11:20:07;14.40;99.90
23405;DHT22;11875;49.356;2.718;2023-04-24T11:22:35;14.60;99.90
23405;DHT22;11875;49.356;2.718;2023-04-24T11:25:05;14.70;99.90
23405;DHT22;11875;49.356;2.718;2023-04-24T11:27:42;14.80;99.90
23405;DHT22;11875;49.356;2.718;2023-04-24T11:30:09;14.90;99.90
23405;DHT22;11875;49.356;2.718;2023-04-24T11:32:41;14.90;99.90
23405;DHT22;11875;49.356;2.718;2023-04-24T11:35:19;14.90;99.90
23405;DHT22;11875;49.356;2.718;2023-04-24T11:37:48;15.00;99.90
23405;DHT22;11875;49.356;2.718;2023-04-24T11:40:15;14.90;99.90
23405;DHT22;11875;49.356;2.718;2023-04-24T11:42:43;14.80;99.90
23405;DHT22;11875;49.356;2.718;2023-04-24T11:47:35;14.70;99.90
23405;DHT22;11875;49.356;2.718;2023-04-24T11:50:02;14.50;99.90
23405;DHT22;11875;49.356;2.718;2023-04-24T11:52:29;14.40;99.90
23405;DHT22;11875;49.356;2.718;2023-04-24T11:54:55;14.40;99.90
23405;DHT22;11875;49.356;2.718;2023-04-24T11:57:22;14.30;99.90
23405;DHT22;11875;49.356;2.718;2023-04-24T11:59:49;14.40;99.90
23405;DHT22;11875;49.356;2.718;2023-04-24T12:02:26;14.30;99.90
23405;DHT22;11875;49.356;2.718;2023-04-24T12:04:53;14.20;99.90
23405;DHT22;11875;49.356;2.718;2023-04-24T12:07:20;14.20;99.90
23405;DHT22;11875;49.356;2.718;2023-04-24T12:09:57;14.10;99.90
23405;DHT22;11875;49.356;2.718;2023-04-24T12:12:26;13.80;99.90
23405;DHT22;11875;49.356;2.718;2023-04-24T12:14:56;13.60;99.90
23405;DHT22;11875;49.356;2.718;2023-04-24T12:17:30;13.60;99.90
23405;DHT22;11875;49.356;2.718;2023-04-24T12:20:02;13.50;99.90
23405;DHT22;11875;49.356;2.718;2023-04-24T12:25:14;13.50;99.90
23405;DHT22;11875;49.356;2.718;2023-04-24T12:27:40;13.30;99.90
23405;DHT22;11875;49.356;2.718;2023-04-24T12:30:10;13.40;99.90
23405;DHT22;11875;49.356;2.718;2023-04-24T12:32:41;13.40;99.90
23405;DHT22;11875;49.356;2.718;2023-04-24T12:35:07;13.30;99.90
23405;DHT22;11875;49.356;2.718;2023-04-24T12:37:33;13.40;99.90
23405;DHT22;11875;49.356;2.718;2023-04-24T12:40:01;13.40;99.90
23405;DHT22;11875;49.356;2.718;2023-04-24T12:42:28;13.50;99.90
23405;DHT22;11875;49.356;2.718;2023-04-24T12:45:05;13.50;99.90
23405;DHT22;11875;49.356;2.718;2023-04-24T12:47:49;13.50;99.90
23405;DHT22;11875;49.356;2.718;2023-04-24T12:50:15;13.50;99.90
23405;DHT22;11875;49.356;2.718;2023-04-24T12:52:42;13.70;99.90
23405;DHT22;11875;49.356;2.718;2023-04-24T12:55:08;13.70;99.90
23405;DHT22;11875;49.356;2.718;2023-04-24T12:57:35;13.80;99.90
23405;DHT22;11875;49.356;2.718;2023-04-24T13:00:02;13.70;99.90
23405;DHT22;11875;49.356;2.718;2023-04-24T13:02:29;13.90;99.90
23405;DHT22;11875;49.356;2.718;2023-04-24T13:04:57;13.90;99.90
23405;DHT22;11875;49.356;2.718;2023-04-24T13:07:23;14.00;99.90
23405;DHT22;11875;49.356;2.718;2023-04-24T13:09:50;14.20;99.90
23405;DHT22;11875;49.356;2.718;2023-04-24T13:12:15;14.20;99.90
23405;DHT22;11875;49.356;2.718;2023-04-24T13:14:41;14.10;99.90
23405;DHT22;11875;49.356;2.718;2023-04-24T13:17:07;14.00;99.90
23405;DHT22;11875;49.356;2.718;2023-04-24T13:19:37;13.90;99.90
23405;DHT22;11875;49.356;2.718;2023-04-24T13:22:03;13.90;99.90
23405;DHT22;11875;49.356;2.718;2023-04-24T13:24:29;14.00;99.90
23405;DHT22;11875;49.356;2.718;2023-04-24T13:26:56;14.10;99.90
23405;DHT22;11875;49.356;2.718;2023-04-24T13:29:22;14.20;99.90
23405;DHT22;11875;49.356;2.718;2023-04-24T13:31:50;14.30;99.90
23405;DHT22;11875;49.356;2.718;2023-04-24T13:34:17;14.30;99.90
23405;DHT22;11875;49.356;2.718;2023-04-24T13:36:42;14.40;99.90
23405;DHT22;11875;49.356;2.718;2023-04-24T13:39:08;14.30;99.90
23405;DHT22;11875;49.356;2.718;2023-04-24T13:41:34;14.30;99.90
23405;DHT22;11875;49.356;2.718;2023-04-24T13:44:00;14.20;99.90
23405;DHT22;11875;49.356;2.718;2023-04-24T13:46:26;14.40;99.90
23405;DHT22;11875;49.356;2.718;2023-04-24T13:48:52;14.40;99.90
23405;DHT22;11875;49.356;2.718;2023-04-24T13:51:17;14.60;99.90
23405;DHT22;11875;49.356;2.718;2023-04-24T13:53:43;14.80;99.90
23405;DHT22;11875;49.356;2.718;2023-04-24T13:56:09;14.90;99.90
23405;DHT22;11875;49.356;2.718;2023-04-24T13:58:35;14.90;99.90
23405;DHT22;11875;49.356;2.718;2023-04-24T14:01:04;14.90;99.90
23405;DHT22;11875;49.356;2.718;2023-04-24T14:03:30;15.00;99.90
23405;DHT22;11875;49.356;2.718;2023-04-24T14:05:56;15.40;99.90
23405;DHT22;11875;49.356;2.718;2023-04-24T14:08:21;15.30;99.90
23405;DHT22;11875;49.356;2.718;2023-04-24T14:10:47;15.30;99.90
23405;DHT22;11875;49.356;2.718;2023-04-24T14:13:13;15.20;99.90
23405;DHT22;11875;49.356;2.718;2023-04-24T14:15:38;15.10;99.90
23405;DHT22;11875;49.356;2.718;2023-04-24T14:18:04;15.10;99.90
23405;DHT22;11875;49.356;2.718;2023-04-24T14:20:30;15.10;99.90
23405;DHT22;11875;49.356;2.718;2023-04-24T14:22:57;15.20;99.90
23405;DHT22;11875;49.356;2.718;2023-04-24T14:25:26;15.20;99.90
23405;DHT22;11875;49.356;2.718;2023-04-24T14:27:52;15.40;99.90
23405;DHT22;11875;49.356;2.718;2023-04-24T14:30:18;15.40;99.90
23405;DHT22;11875;49.356;2.718;2023-04-24T14:32:44;15.60;99.90
23405;DHT22;11875;49.356;2.718;2023-04-24T14:35:09;15.80;99.90
23405;DHT22;11875;49.356;2.718;2023-04-24T14:37:35;15.90;99.90
23405;DHT22;11875;49.356;2.718;2023-04-24T14:40:01;15.80;99.90
23405;DHT22;11875;49.356;2.718;2023-04-24T14:42:27;15.80;99.90
23405;DHT22;11875;49.356;2.718;2023-04-24T14:44:54;15.80;99.90
23405;DHT22;11875;49.356;2.718;2023-04-24T14:47:20;15.60;99.90
23405;DHT22;11875;49.356;2.718;2023-04-24T14:49:47;15.40;99.90
23405;DHT22;11875;49.356;2.718;2023-04-24T14:52:13;15.10;99.90
23405;DHT22;11875;49.356;2.718;2023-04-24T14:54:38;14.70;99.90
23405;DHT22;11875;49.356;2.718;2023-04-24T14:57:04;14.50;99.90
23405;DHT22;11875;49.356;2.718;2023-04-24T14:59:30;14.30;99.90
23405;DHT22;11875;49.356;2.718;2023-04-24T15:01:56;14.20;99.90
23405;DHT22;11875;49.356;2.718;2023-04-24T15:04:26;14.30;99.90
23405;DHT22;11875;49.356;2.718;2023-04-24T15:06:53;14.20;99.90
23405;DHT22;11875;49.356;2.718;2023-04-24T15:09:22;14.20;99.90
23405;DHT22;11875;49.356;2.718;2023-04-24T15:11:48;14.30;99.90
23405;DHT22;11875;49.356;2.718;2023-04-24T15:14:14;14.40;99.90
23405;DHT22;11875;49.356;2.718;2023-04-24T15:16:40;14.40;99.90
23405;DHT22;11875;49.356;2.718;2023-04-24T15:19:06;14.50;99.90
23405;DHT22;11875;49.356;2.718;2023-04-24T15:21:32;14.70;99.90
23405;DHT22;11875;49.356;2.718;2023-04-24T15:23:58;14.90;99.90
23405;DHT22;11875;49.356;2.718;2023-04-24T15:26:24;15.20;99.90
23405;DHT22;11875;49.356;2.718;2023-04-24T15:28:50;15.40;99.90
23405;DHT22;11875;49.356;2.718;2023-04-24T15:31:17;15.60;99.90
23405;DHT22;11875;49.356;2.718;2023-04-24T15:33:43;15.70;99.90
23405;DHT22;11875;49.356;2.718;2023-04-24T15:36:09;15.90;99.90
23405;DHT22;11875;49.356;2.718;2023-04-24T15:38:35;16.00;99.90
23405;DHT22;11875;49.356;2.718;2023-04-24T15:41:00;16.00;99.90
23405;DHT22;11875;49.356;2.718;2023-04-24T15:43:26;16.10;99.90